createdAt,value
2023-03-08T00:00:11.059Z,84.26
2023-03-08T00:05:13.838Z,84.36
2023-03-08T00:10:18.638Z,84.18
2023-03-08T00:15:21.352Z,84.36
2023-03-08T00:20:30.595Z,85.35
2023-03-08T00:52:57.085Z,84.30
2023-03-08T00:57:59.920Z,83.78
2023-03-08T01:03:02.887Z,83.40
2023-03-08T01:08:07.335Z,83.05
2023-03-08T01:13:10.597Z,82.43
2023-03-08T01:18:14.091Z,82.06
2023-03-08T01:23:18.251Z,81.90
2023-03-08T01:28:21.065Z,82.72
2023-03-08T01:33:25.092Z,81.82
2023-03-08T01:38:29.320Z,81.96
2023-03-08T01:43:34.004Z,81.55
2023-03-08T01:48:41.897Z,81.59
2023-03-08T01:53:50.065Z,81.40
2023-03-08T01:58:53.602Z,81.80
2023-03-08T02:03:56.916Z,81.87
2023-03-08T02:09:05.049Z,81.26
2023-03-08T02:14:08.052Z,81.17
2023-03-08T02:19:18.401Z,81.23
2023-03-08T02:24:25.814Z,79.93
2023-03-08T02:29:28.669Z,78.99
2023-03-08T02:34:31.562Z,79.62
2023-03-08T02:39:36.141Z,79.67
2023-03-08T02:44:38.916Z,80.17
2023-03-08T02:49:41.753Z,80.08
2023-03-08T02:54:47.324Z,79.78
2023-03-08T02:59:50.168Z,79.70
2023-03-08T03:04:53.332Z,80.48
2023-03-08T03:09:57.965Z,80.52
2023-03-08T03:15:02.278Z,80.76
2023-03-08T03:20:06.445Z,80.28
2023-03-08T03:25:10.871Z,80.30
2023-03-08T03:30:14.304Z,80.34
2023-03-08T03:35:17.283Z,79.50
2023-03-08T03:40:21.718Z,79.35
2023-03-08T03:45:30.227Z,80.39
2023-03-08T03:50:33.488Z,79.68
2023-03-08T03:55:43.309Z,79.53
2023-03-08T04:00:46.674Z,79.10
2023-03-08T04:06:06.957Z,79.69
2023-03-08T04:11:14.636Z,79.50
2023-03-08T04:16:19.872Z,79.07
2023-03-08T04:21:24.121Z,78.39
2023-03-08T04:26:29.633Z,78.79
2023-03-08T04:31:34.832Z,79.08
2023-03-08T04:36:41.205Z,79.48
2023-03-08T04:41:46.851Z,80.07
2023-03-08T04:46:58.762Z,79.49
2023-03-08T04:52:15.803Z,79.53
2023-03-08T04:57:21.258Z,80.31
2023-03-08T05:02:26.202Z,79.23
2023-03-08T05:07:29.154Z,79.11
2023-03-08T05:12:37.190Z,79.41
2023-03-08T05:17:40.516Z,79.72
2023-03-08T05:22:57.277Z,79.46
2023-03-08T05:28:05.740Z,79.38
2023-03-08T05:33:08.902Z,79.25
2023-03-08T05:38:12.058Z,79.47
2023-03-08T05:43:16.402Z,79.07
2023-03-08T05:48:19.598Z,79.11
2023-03-08T05:53:23.570Z,78.87
2023-03-08T05:58:27.996Z,79.03
2023-03-08T06:03:30.892Z,79.29
2023-03-08T06:08:33.924Z,78.82
2023-03-08T06:13:38.428Z,79.76
2023-03-08T06:18:42.829Z,79.99
2023-03-08T06:23:48.716Z,79.92
2023-03-08T06:28:52.954Z,80.73
2023-03-08T06:33:56.547Z,81.03
2023-03-08T06:39:02.241Z,80.53
2023-03-08T06:44:06.693Z,80.08
2023-03-08T06:49:09.561Z,80.35
2023-03-08T06:54:17.531Z,81.03
2023-03-08T06:59:23.431Z,81.06
2023-03-08T07:04:26.297Z,80.24
2023-03-08T07:09:29.197Z,80.20
2023-03-08T07:14:33.363Z,80.76
2023-03-08T07:19:36.148Z,80.22
2023-03-08T07:24:39.165Z,79.84
2023-03-08T07:29:43.319Z,79.39
2023-03-08T07:34:46.383Z,79.62
2023-03-08T07:39:49.223Z,78.66
2023-03-08T07:44:53.338Z,78.45
2023-03-08T07:49:56.134Z,78.79
2023-03-08T07:54:59.169Z,78.44
2023-03-08T08:00:07.368Z,78.71
2023-03-08T08:05:15.051Z,79.09
2023-03-08T08:10:18.399Z,79.07
2023-03-08T08:15:25.201Z,79.76
2023-03-08T08:20:28.395Z,78.52
2023-03-08T08:25:31.126Z,78.88
2023-03-08T08:30:35.260Z,78.08
2023-03-08T08:35:43.385Z,78.49
2023-03-08T08:40:46.808Z,78.27
2023-03-08T08:45:55.839Z,77.91
2023-03-08T08:50:59.523Z,77.70
2023-03-08T08:56:23.825Z,77.73
2023-03-08T09:01:32.521Z,77.52
2023-03-08T09:06:35.309Z,77.02
2023-03-08T09:11:53.392Z,77.33
2023-03-08T09:16:58.698Z,76.88
2023-03-08T09:22:01.523Z,76.85
2023-03-08T09:27:06.142Z,76.37
2023-03-08T09:32:10.600Z,77.01
2023-03-08T09:37:13.773Z,76.99
2023-03-08T09:42:23.426Z,77.22
2023-03-08T09:47:48.176Z,76.91
2023-03-08T09:52:57.162Z,77.48
2023-03-08T09:58:03.092Z,78.13
2023-03-08T10:03:25.876Z,78.26
2023-03-08T10:08:36.060Z,78.05
2023-03-08T10:13:40.912Z,77.96
2023-03-08T10:18:50.488Z,78.27
2023-03-08T10:23:59.857Z,76.23
2023-03-08T10:29:02.602Z,76.56
2023-03-08T10:34:13.529Z,75.96
2023-03-08T10:39:17.335Z,76.67
2023-03-08T10:44:33.627Z,75.78
2023-03-08T10:49:37.934Z,76.81
2023-03-08T10:54:40.746Z,75.88
2023-03-08T10:59:51.118Z,76.31
2023-03-08T11:04:58.399Z,75.81
2023-03-08T11:10:19.911Z,74.65
2023-03-08T11:15:22.762Z,75.98
2023-03-08T11:20:32.886Z,74.18
2023-03-08T11:25:43.266Z,72.57
2023-03-08T11:30:56.746Z,75.79
2023-03-08T11:36:07.006Z,75.60
2023-03-08T11:41:24.756Z,73.44
2023-03-08T11:46:33.821Z,75.12
2023-03-08T11:51:45.167Z,74.27
2023-03-08T11:56:54.739Z,73.66
2023-03-08T12:02:03.133Z,72.18
2023-03-08T12:07:14.050Z,73.81
2023-03-08T12:12:22.554Z,73.77
2023-03-08T12:17:29.748Z,74.10
2023-03-08T12:22:46.331Z,73.52
2023-03-08T12:27:54.781Z,74.33
2023-03-08T12:33:00.221Z,75.06
2023-03-08T12:38:07.493Z,75.32
2023-03-08T12:43:13.278Z,74.69
2023-03-08T12:48:24.057Z,74.60
2023-03-08T12:53:34.384Z,73.91
2023-03-08T12:58:41.212Z,74.26
2023-03-08T13:03:44.051Z,74.17
2023-03-08T13:08:54.106Z,75.53
2023-03-08T13:14:01.464Z,75.11
2023-03-08T13:19:19.066Z,74.62
2023-03-08T13:24:36.554Z,75.34
2023-03-08T13:29:40.335Z,72.74
2023-03-08T13:34:45.497Z,73.57
2023-03-08T13:39:54.085Z,72.60
2023-03-08T13:45:09.236Z,72.00
2023-03-08T13:50:19.420Z,71.60
2023-03-08T13:55:30.936Z,72.39
2023-03-08T14:00:35.520Z,72.44
2023-03-08T14:05:43.679Z,73.29
2023-03-08T14:10:51.074Z,73.60
2023-03-08T14:15:56.922Z,73.00
2023-03-08T14:21:06.129Z,74.02
2023-03-08T14:31:39.059Z,72.62
2023-03-08T14:36:49.612Z,72.73
2023-03-08T14:41:52.614Z,73.29
2023-03-08T14:46:59.598Z,73.98
2023-03-08T14:52:02.857Z,74.21
2023-03-08T14:57:18.993Z,75.15
2023-03-08T15:02:23.302Z,74.46
2023-03-08T15:07:35.382Z,73.08
2023-03-08T15:12:38.168Z,73.78
2023-03-08T15:17:42.405Z,74.07
2023-03-08T15:22:48.210Z,74.03
2023-03-08T15:27:51.000Z,73.71
2023-03-08T15:32:57.934Z,74.26
2023-03-08T15:38:02.225Z,74.29
2023-03-08T15:43:05.017Z,74.87
2023-03-08T15:48:13.655Z,75.55
2023-03-08T15:53:29.383Z,76.00
2023-03-08T15:58:37.278Z,77.33
2023-03-08T16:03:41.842Z,77.55
2023-03-08T16:08:44.587Z,77.85
2023-03-08T16:13:49.526Z,78.44
2023-03-08T16:18:53.634Z,78.98
2023-03-08T16:23:57.400Z,79.51
2023-03-08T16:29:00.151Z,80.09
2023-03-08T16:34:05.467Z,80.28
2023-03-08T16:39:09.264Z,80.97
2023-03-08T16:44:20.206Z,81.14
2023-03-08T16:49:28.246Z,81.43
2023-03-08T16:54:31.035Z,81.51
2023-03-08T16:59:33.809Z,81.70
2023-03-08T17:04:37.936Z,81.74
2023-03-08T17:09:40.932Z,81.86
2023-03-08T17:14:44.593Z,82.05
2023-03-08T17:19:52.640Z,82.24
2023-03-08T17:24:55.604Z,82.43
2023-03-08T17:30:00.649Z,82.78
2023-03-08T17:35:05.417Z,82.95
2023-03-08T17:40:10.533Z,82.65
2023-03-08T17:45:14.060Z,83.09
2023-03-08T17:50:18.399Z,82.74
2023-03-08T17:55:21.218Z,82.83
2023-03-08T18:00:24.645Z,82.75
2023-03-08T18:05:29.122Z,82.67
2023-03-08T18:10:31.888Z,82.63
2023-03-08T18:15:34.696Z,82.76
2023-03-08T18:20:38.973Z,82.77
2023-03-08T18:25:41.839Z,82.68
2023-03-08T18:30:44.680Z,82.31
2023-03-08T18:35:56.889Z,82.61
2023-03-08T18:40:59.652Z,82.66
2023-03-08T18:46:02.410Z,82.41
2023-03-08T18:51:07.111Z,82.41
2023-03-08T18:56:10.533Z,82.38
2023-03-08T19:01:15.573Z,82.63
2023-03-08T19:06:19.779Z,82.48
2023-03-08T19:11:24.549Z,82.51
2023-03-08T19:16:29.766Z,82.53
2023-03-08T19:21:35.381Z,82.72
2023-03-08T19:26:40.967Z,82.18
2023-03-08T19:31:45.287Z,82.44
2023-03-08T19:36:49.888Z,82.33
2023-03-08T19:41:54.842Z,82.29
2023-03-08T19:46:58.239Z,82.43
2023-03-08T19:52:05.313Z,82.29
2023-03-08T19:57:08.242Z,82.70
2023-03-08T20:02:13.690Z,82.44
2023-03-08T20:07:21.196Z,82.68
2023-03-08T20:12:23.983Z,82.97
2023-03-08T20:17:27.639Z,82.62
2023-03-08T20:22:31.777Z,82.42
2023-03-08T20:27:35.412Z,82.60
2023-03-08T20:32:39.508Z,82.61
2023-03-08T20:37:43.786Z,82.53
2023-03-08T20:42:46.559Z,82.66
2023-03-08T20:47:49.315Z,82.75
2023-03-08T20:52:53.755Z,82.40
2023-03-08T20:57:56.526Z,82.62
2023-03-08T21:02:59.545Z,82.54
2023-03-08T21:08:04.639Z,82.36
2023-03-08T21:13:07.751Z,82.35
2023-03-08T21:18:10.541Z,82.27
2023-03-08T21:23:16.430Z,82.40
2023-03-08T21:28:19.433Z,82.46
2023-03-08T21:33:22.217Z,82.36
2023-03-08T21:38:26.348Z,82.14
2023-03-08T21:43:29.096Z,82.12
2023-03-08T21:48:32.090Z,82.31
2023-03-08T21:53:36.457Z,82.29
2023-03-08T21:58:39.670Z,82.84
2023-03-08T22:03:42.423Z,82.51
2023-03-08T22:08:47.073Z,82.45
2023-03-08T22:13:51.153Z,82.06
2023-03-08T22:18:54.975Z,81.78
2023-03-08T22:24:00.832Z,81.68
2023-03-08T22:29:03.805Z,81.74
2023-03-08T22:34:07.720Z,82.03
2023-03-08T22:39:12.977Z,82.21
2023-03-08T22:44:16.959Z,82.18
2023-03-08T22:49:19.703Z,82.35
2023-03-08T22:54:24.743Z,82.69
2023-03-08T22:59:27.578Z,82.67
2023-03-08T23:04:30.375Z,82.93
2023-03-08T23:09:35.497Z,83.04
2023-03-08T23:14:38.239Z,82.81
2023-03-08T23:19:44.971Z,83.20
2023-03-08T23:24:49.279Z,82.98
2023-03-08T23:29:52.926Z,83.14
2023-03-08T23:48:12.855Z,83.60
2023-03-08T23:53:15.626Z,83.59
2023-03-08T23:58:18.452Z,83.90
